Impacts METAR Board
IDs:

KLGA - New York/La Guardia, NY, US

Updated at: 1900 UTC 22 Sep 2018
Potential Impact None Slight Moderate High
Time 22/07Z 22/08Z 22/09Z 22/10Z 22/11Z 22/12Z 22/13Z 22/14Z 22/15Z 22/16Z 22/17Z 22/18Z 22/19Z
Temp75 76 76 76 75 73 72 72 72 73 71 71 71
Dewpt66 67 68 67 66 58 55 53 53 52 51 50 47
Altim29.93 29.94 29.94 29.96 30.00 30.05 30.07 30.09 30.10 30.11 30.12 30.13 30.13
VIS10 10 10 10 10 10 10 10 10 10 10 10 10
CIG21 37 170 200 180 230 250 250 200 200 210 210 200
CoverBKNBKNBKNBKNBKNBKNBKNBKNBKNBKNBKNBKNBKN
FltCatMVFRVFRVFRVFRVFRVFRVFRVFRVFRVFRVFRVFRVFR
WX--------------------------
WDir2302402502703103103303303201035035010
WSpd12 12 9 12 12 13 14 12 10 10 11 9 9
WGst24 21 -- 17 -- 23 23 19 17 -- 17 -- --
Raw hourly METARs
KLGA 220651Z 23012G24KT 10SM BKN021 24/19 A2993 RMK AO2 SLP135 T02390189 $
KLGA 220751Z COR 24012G21KT 10SM SCT021 SCT030 BKN037 BKN150 24/19 A2994 RMK AO2 SLP137 T02440194 $
KLGA 220851Z 25009KT 10SM SCT023 SCT120 BKN170 24/20 A2994 RMK AO2 SLP139 T02440200 53004 $
KLGA 220951Z 27012G17KT 10SM FEW025 BKN200 BKN240 24/19 A2996 RMK AO2 SLP146 T02440194 $
KLGA 221051Z 31012KT 10SM FEW035 BKN180 BKN230 24/19 A3000 RMK AO2 SLP158 T02390189 $
KLGA 221151Z 31013G23KT 10SM FEW030 SCT180 BKN230 23/14 A3005 RMK AO2 PK WND 31030/1108 SLP174 T02280144 10244 20228 53035 $
KLGA 221251Z 33014G23KT 10SM FEW030 FEW180 SCT200 BKN250 22/13 A3007 RMK AO2 PK WND 32027/1231 SLP183 T02220128 $
KLGA 221351Z 33012G19KT 10SM FEW035 SCT200 BKN250 22/12 A3009 RMK AO2 SLP188 T02220117 $
KLGA 221451Z 32010G17KT 10SM FEW040 BKN200 BKN250 22/12 A3010 RMK AO2 SLP194 T02220117 51020 $
KLGA 221551Z 01010KT 10SM FEW045 BKN200 BKN250 23/11 A3011 RMK AO2 SLP196 T02280111 $
KLGA 221651Z 35011G17KT 10SM FEW050 BKN210 BKN260 22/11 A3012 RMK AO2 SLP199 T02170106 $
KLGA 221751Z 35009KT 10SM FEW050 BKN210 BKN260 22/10 A3013 RMK AO2 SLP201 T02170100 10233 20217 51008 $
KLGA 221851Z 01009KT 10SM FEW050 BKN200 BKN260 22/08 A3013 RMK AO2 SLP203 T02170083 $



Page loaded:  19:20 UTC  |   12:20 PM Pacific  |   01:20 PM Mountain  |   02:20 PM Central  |   03:20 PM Eastern

 

ADVISORIES

FORECASTS

FORECASTS

OBSERVATIONS

USER TOOLS

ABOUT US